sensor_id;sensor_type;location;lat;lon;timestamp;pressure;altitude;pressure_sealevel;temperature;humidity
39891;BME280;25564;53.312;9.790;2023-04-04T00:01:30;102464.22;;;-0.79;81.46
39891;BME280;25564;53.312;9.790;2023-04-04T00:04:01;102490.25;;;-0.64;81.67
39891;BME280;25564;53.312;9.790;2023-04-04T00:06:33;102406.66;;;-1.15;80.60
39891;BME280;25564;53.312;9.790;2023-04-04T00:09:05;102375.41;;;-1.29;80.90
39891;BME280;25564;53.312;9.790;2023-04-04T00:11:36;102489.66;;;-0.75;81.70
39891;BME280;25564;53.312;9.790;2023-04-04T00:14:08;102401.00;;;-1.22;81.29
39891;BME280;25564;53.312;9.790;2023-04-04T00:16:39;102448.63;;;-0.94;81.29
39891;BME280;25564;53.312;9.790;2023-04-04T00:19:11;102349.06;;;-1.50;80.54
39891;BME280;25564;53.312;9.790;2023-04-04T00:21:48;102357.84;;;-1.48;80.84
39891;BME280;25564;53.312;9.790;2023-04-04T00:24:20;102443.41;;;-0.94;80.42
39891;BME280;25564;53.312;9.790;2023-04-04T00:26:52;102365.28;;;-1.40;81.01
39891;BME280;25564;53.312;9.790;2023-04-04T00:29:23;102449.78;;;-0.89;80.78
39891;BME280;25564;53.312;9.790;2023-04-04T00:31:55;102388.69;;;-1.25;81.65
39891;BME280;25564;53.312;9.790;2023-04-04T00:34:28;102451.13;;;-0.95;81.52
39891;BME280;25564;53.312;9.790;2023-04-04T00:36:59;102339.38;;;-1.53;80.90
39891;BME280;25564;53.312;9.790;2023-04-04T00:39:30;102442.50;;;-0.94;81.55
39891;BME280;25564;53.312;9.790;2023-04-04T00:42:02;102432.63;;;-1.00;81.71
39891;BME280;25564;53.312;9.790;2023-04-04T00:44:34;102459.38;;;-0.88;80.68
39891;BME280;25564;53.312;9.790;2023-04-04T00:47:06;102390.06;;;-1.32;81.43
39891;BME280;25564;53.312;9.790;2023-04-04T00:49:38;102437.69;;;-1.03;80.94
39891;BME280;25564;53.312;9.790;2023-04-04T00:52:09;102332.72;;;-1.62;80.93
39891;BME280;25564;53.312;9.790;2023-04-04T00:54:41;102440.94;;;-1.07;81.29
39891;BME280;25564;53.312;9.790;2023-04-04T00:57:12;102421.22;;;-1.18;80.97
39891;BME280;25564;53.312;9.790;2023-04-04T00:59:44;102420.13;;;-1.22;81.03
39891;BME280;25564;53.312;9.790;2023-04-04T01:02:16;102401.09;;;-1.36;81.37
39891;BME280;25564;53.312;9.790;2023-04-04T01:04:47;102422.56;;;-1.25;81.61
39891;BME280;25564;53.312;9.790;2023-04-04T01:07:18;102433.06;;;-1.23;81.88
39891;BME280;25564;53.312;9.790;2023-04-04T01:09:50;102406.13;;;-1.39;81.78
39891;BME280;25564;53.312;9.790;2023-04-04T01:12:22;102372.22;;;-1.55;81.18
39891;BME280;25564;53.312;9.790;2023-04-04T01:14:53;102410.53;;;-1.38;81.82
39891;BME280;25564;53.312;9.790;2023-04-04T01:17:26;102411.69;;;-1.33;81.50
39891;BME280;25564;53.312;9.790;2023-04-04T01:20:03;102430.63;;;-1.20;81.73
39891;BME280;25564;53.312;9.790;2023-04-04T01:22:36;102365.75;;;-1.61;81.21
39891;BME280;25564;53.312;9.790;2023-04-04T01:25:10;102411.69;;;-1.33;81.40
39891;BME280;25564;53.312;9.790;2023-04-04T01:27:42;102323.94;;;-1.79;81.61
39891;BME280;25564;53.312;9.790;2023-04-04T01:30:14;102411.88;;;-1.29;81.55
39891;BME280;25564;53.312;9.790;2023-04-04T01:33:01;102433.25;;;-1.20;81.21
39891;BME280;25564;53.312;9.790;2023-04-04T01:35:52;102399.50;;;-1.34;82.10
39891;BME280;25564;53.312;9.790;2023-04-04T01:38:53;102419.97;;;-1.25;82.01
39891;BME280;25564;53.312;9.790;2023-04-04T01:41:26;102384.97;;;-1.45;81.58
39891;BME280;25564;53.312;9.790;2023-04-04T01:44:02;102359.19;;;-1.55;81.38
39891;BME280;25564;53.312;9.790;2023-04-04T01:46:35;102290.50;;;-1.88;81.30
39891;BME280;25564;53.312;9.790;2023-04-04T01:49:07;102400.31;;;-1.35;81.66
39891;BME280;25564;53.312;9.790;2023-04-04T01:51:41;102395.72;;;-1.39;81.67
39891;BME280;25564;53.312;9.790;2023-04-04T01:54:12;102376.25;;;-1.45;82.42
39891;BME280;25564;53.312;9.790;2023-04-04T01:56:44;102396.25;;;-1.29;81.62
39891;BME280;25564;53.312;9.790;2023-04-04T01:59:16;102383.88;;;-1.34;81.97
39891;BME280;25564;53.312;9.790;2023-04-04T02:01:48;102388.16;;;-1.19;81.90
39891;BME280;25564;53.312;9.790;2023-04-04T02:04:19;102327.97;;;-1.55;82.09
39891;BME280;25564;53.312;9.790;2023-04-04T02:06:51;102291.19;;;-1.76;82.12
39891;BME280;25564;53.312;9.790;2023-04-04T02:09:22;102293.81;;;-1.76;81.47
39891;BME280;25564;53.312;9.790;2023-04-04T02:11:54;102377.47;;;-1.24;82.20
39891;BME280;25564;53.312;9.790;2023-04-04T02:14:26;102355.31;;;-1.32;82.33
39891;BME280;25564;53.312;9.790;2023-04-04T02:16:57;102333.31;;;-1.37;82.49
39891;BME280;25564;53.312;9.790;2023-04-04T02:19:29;102367.41;;;-1.18;82.17
39891;BME280;25564;53.312;9.790;2023-04-04T02:22:01;102336.81;;;-1.37;82.37
39891;BME280;25564;53.312;9.790;2023-04-04T02:24:32;102305.97;;;-1.45;81.60
39891;BME280;25564;53.312;9.790;2023-04-04T02:27:03;102372.41;;;-1.06;82.31
39891;BME280;25564;53.312;9.790;2023-04-04T02:29:35;102338.41;;;-1.24;82.00
39891;BME280;25564;53.312;9.790;2023-04-04T02:32:06;102364.41;;;-1.09;81.56
39891;BME280;25564;53.312;9.790;2023-04-04T02:34:37;102364.25;;;-1.12;81.96
39891;BME280;25564;53.312;9.790;2023-04-04T02:37:09;102357.25;;;-1.13;82.70
39891;BME280;25564;53.312;9.790;2023-04-04T02:39:40;102349.72;;;-1.23;81.81
39891;BME280;25564;53.312;9.790;2023-04-04T02:42:11;102359.41;;;-1.21;81.76
39891;BME280;25564;53.312;9.790;2023-04-04T02:44:43;102268.50;;;-1.78;82.60
39891;BME280;25564;53.312;9.790;2023-04-04T02:47:14;102340.16;;;-1.39;82.35
39891;BME280;25564;53.312;9.790;2023-04-04T02:49:47;102301.41;;;-1.64;82.56
39891;BME280;25564;53.312;9.790;2023-04-04T02:52:19;102344.47;;;-1.40;81.55
39891;BME280;25564;53.312;9.790;2023-04-04T02:54:51;102376.75;;;-1.21;82.38
39891;BME280;25564;53.312;9.790;2023-04-04T02:57:23;102347.25;;;-1.37;81.68
39891;BME280;25564;53.312;9.790;2023-04-04T02:59:54;102373.81;;;-1.27;82.50
39891;BME280;25564;53.312;9.790;2023-04-04T03:02:25;102354.16;;;-1.37;81.89
39891;BME280;25564;53.312;9.790;2023-04-04T03:04:57;102334.50;;;-1.47;82.37
39891;BME280;25564;53.312;9.790;2023-04-04T03:07:28;102257.38;;;-1.90;82.75
39891;BME280;25564;53.312;9.790;2023-04-04T03:09:59;102359.53;;;-1.34;82.58
39891;BME280;25564;53.312;9.790;2023-04-04T03:12:31;102357.38;;;-1.26;82.63
39891;BME280;25564;53.312;9.790;2023-04-04T03:15:03;102351.34;;;-1.25;82.92
39891;BME280;25564;53.312;9.790;2023-04-04T03:17:35;102344.16;;;-1.29;82.79
39891;BME280;25564;53.312;9.790;2023-04-04T03:20:11;102257.28;;;-1.77;82.67
39891;BME280;25564;53.312;9.790;2023-04-04T03:22:42;102257.19;;;-1.79;82.93
39891;BME280;25564;53.312;9.790;2023-04-04T03:25:14;102339.78;;;-1.30;83.06
39891;BME280;25564;53.312;9.790;2023-04-04T03:27:46;102250.63;;;-1.72;83.36
39891;BME280;25564;53.312;9.790;2023-04-04T03:30:17;102342.34;;;-1.16;82.28
39891;BME280;25564;53.312;9.790;2023-04-04T03:32:49;102335.50;;;-1.14;82.53
39891;BME280;25564;53.312;9.790;2023-04-04T03:35:21;102354.16;;;-1.06;83.27
39891;BME280;25564;53.312;9.790;2023-04-04T03:37:52;102327.53;;;-1.17;83.08
39891;BME280;25564;53.312;9.790;2023-04-04T03:40:24;102316.84;;;-1.21;82.54
39891;BME280;25564;53.312;9.790;2023-04-04T03:42:56;102317.75;;;-1.21;82.52
39891;BME280;25564;53.312;9.790;2023-04-04T03:45:32;102347.16;;;-1.07;82.74
39891;BME280;25564;53.312;9.790;2023-04-04T03:48:04;102341.97;;;-1.07;82.80
39891;BME280;25564;53.312;9.790;2023-04-04T03:50:36;102339.19;;;-1.10;83.19
39891;BME280;25564;53.312;9.790;2023-04-04T03:53:07;102333.00;;;-1.12;82.42
39891;BME280;25564;53.312;9.790;2023-04-04T03:55:40;102326.00;;;-1.13;82.63
39891;BME280;25564;53.312;9.790;2023-04-04T03:58:12;102343.75;;;-1.06;83.11
39891;BME280;25564;53.312;9.790;2023-04-04T04:00:44;102325.09;;;-1.14;82.73
39891;BME280;25564;53.312;9.790;2023-04-04T04:03:15;102332.25;;;-1.10;82.60
39891;BME280;25564;53.312;9.790;2023-04-04T04:05:47;102334.22;;;-1.06;83.22
39891;BME280;25564;53.312;9.790;2023-04-04T04:08:19;102243.06;;;-1.53;83.39
39891;BME280;25564;53.312;9.790;2023-04-04T04:10:50;102276.63;;;-1.26;83.07
39891;BME280;25564;53.312;9.790;2023-04-04T04:13:22;102309.97;;;-1.05;82.73
39891;BME280;25564;53.312;9.790;2023-04-04T04:15:53;102318.69;;;-1.04;82.83
39891;BME280;25564;53.312;9.790;2023-04-04T04:18:26;102326.63;;;-1.01;83.28
39891;BME280;25564;53.312;9.790;2023-04-04T04:20:58;102320.59;;;-1.00;83.50
39891;BME280;25564;53.312;9.790;2023-04-04T04:23:30;102331.38;;;-0.94;82.30
39891;BME280;25564;53.312;9.790;2023-04-04T04:26:01;102238.44;;;-1.42;82.41
39891;BME280;25564;53.312;9.790;2023-04-04T04:28:33;102259.38;;;-1.24;82.74
39891;BME280;25564;53.312;9.790;2023-04-04T04:31:08;102335.53;;;-0.81;82.41
39891;BME280;25564;53.312;9.790;2023-04-04T04:33:40;102343.28;;;-0.83;82.79
39891;BME280;25564;53.312;9.790;2023-04-04T04:36:12;102320.13;;;-0.93;82.57
39891;BME280;25564;53.312;9.790;2023-04-04T04:38:43;102323.72;;;-0.91;82.44
39891;BME280;25564;53.312;9.790;2023-04-04T04:41:15;102313.28;;;-0.91;82.73
39891;BME280;25564;53.312;9.790;2023-04-04T04:43:47;102277.31;;;-1.14;83.24
39891;BME280;25564;53.312;9.790;2023-04-04T04:46:18;102344.34;;;-0.79;82.42
39891;BME280;25564;53.312;9.790;2023-04-04T04:48:49;102315.81;;;-0.92;82.21
39891;BME280;25564;53.312;9.790;2023-04-04T04:51:22;102340.75;;;-0.81;83.13
39891;BME280;25564;53.312;9.790;2023-04-04T04:53:53;102357.06;;;-0.69;83.20
39891;BME280;25564;53.312;9.790;2023-04-04T04:56:25;102285.69;;;-1.04;82.34
39891;BME280;25564;53.312;9.790;2023-04-04T04:58:56;102344.03;;;-0.69;83.30
39891;BME280;25564;53.312;9.790;2023-04-04T05:01:28;102329.69;;;-0.77;83.14
39891;BME280;25564;53.312;9.790;2023-04-04T05:04:01;102347.84;;;-0.62;82.60
39891;BME280;25564;53.312;9.790;2023-04-04T05:06:34;102308.25;;;-0.88;82.70
39891;BME280;25564;53.312;9.790;2023-04-04T05:09:06;102330.66;;;-0.75;82.55
39891;BME280;25564;53.312;9.790;2023-04-04T05:11:37;102352.50;;;-0.57;82.62
39891;BME280;25564;53.312;9.790;2023-04-04T05:14:09;102279.09;;;-0.97;82.65
39891;BME280;25564;53.312;9.790;2023-04-04T05:16:41;102324.22;;;-0.66;82.54
39891;BME280;25564;53.312;9.790;2023-04-04T05:19:13;102321.63;;;-0.66;82.46
39891;BME280;25564;53.312;9.790;2023-04-04T05:21:45;102349.50;;;-0.48;82.80
39891;BME280;25564;53.312;9.790;2023-04-04T05:24:16;102356.19;;;-0.37;82.68
39891;BME280;25564;53.312;9.790;2023-04-04T05:26:49;102348.28;;;-0.39;82.88
39891;BME280;25564;53.312;9.790;2023-04-04T05:29:20;102351.13;;;-0.34;83.08
39891;BME280;25564;53.312;9.790;2023-04-04T05:31:52;102348.75;;;-0.29;82.36
39891;BME280;25564;53.312;9.790;2023-04-04T05:34:23;102357.63;;;-0.26;82.44
39891;BME280;25564;53.312;9.790;2023-04-04T05:36:54;102353.16;;;-0.28;82.36
39891;BME280;25564;53.312;9.790;2023-04-04T05:39:27;102307.53;;;-0.53;82.64
39891;BME280;25564;53.312;9.790;2023-04-04T05:41:59;102351.59;;;-0.25;83.35
39891;BME280;25564;53.312;9.790;2023-04-04T05:44:30;102358.13;;;-0.17;82.88
39891;BME280;25564;53.312;9.790;2023-04-04T05:47:02;102330.09;;;-0.21;82.49
39891;BME280;25564;53.312;9.790;2023-04-04T05:49:33;102348.69;;;0.03;83.21
39891;BME280;25564;53.312;9.790;2023-04-04T05:52:05;102341.06;;;0.95;82.89
39891;BME280;25564;53.312;9.790;2023-04-04T05:54:36;102327.44;;;1.99;82.39
39891;BME280;25564;53.312;9.790;2023-04-04T05:57:08;102300.31;;;2.60;80.69
39891;BME280;25564;53.312;9.790;2023-04-04T05:59:39;102343.22;;;3.29;78.97
39891;BME280;25564;53.312;9.790;2023-04-04T06:02:11;102342.50;;;3.34;79.15
39891;BME280;25564;53.312;9.790;2023-04-04T06:04:42;102350.19;;;3.29;78.41
39891;BME280;25564;53.312;9.790;2023-04-04T06:07:15;102311.19;;;2.92;79.50
39891;BME280;25564;53.312;9.790;2023-04-04T06:09:47;102351.72;;;3.00;79.57
39891;BME280;25564;53.312;9.790;2023-04-04T06:12:18;102330.94;;;2.61;79.83
39891;BME280;25564;53.312;9.790;2023-04-04T06:14:49;102341.50;;;2.42;80.33
39891;BME280;25564;53.312;9.790;2023-04-04T06:17:21;102360.28;;;2.32;81.16
39891;BME280;25564;53.312;9.790;2023-04-04T06:19:54;102320.81;;;2.07;81.05
39891;BME280;25564;53.312;9.790;2023-04-04T06:22:26;102331.44;;;2.11;82.05
39891;BME280;25564;53.312;9.790;2023-04-04T06:24:58;102365.13;;;2.23;81.65
39891;BME280;25564;53.312;9.790;2023-04-04T06:27:29;102347.09;;;2.10;82.30
39891;BME280;25564;53.312;9.790;2023-04-04T06:30:02;102372.97;;;2.23;81.72
39891;BME280;25564;53.312;9.790;2023-04-04T06:32:33;102376.50;;;2.23;81.59
39891;BME280;25564;53.312;9.790;2023-04-04T06:35:05;102342.59;;;2.06;82.20
39891;BME280;25564;53.312;9.790;2023-04-04T06:37:37;102373.94;;;2.25;81.69
39891;BME280;25564;53.312;9.790;2023-04-04T06:40:09;102357.06;;;2.18;81.14
39891;BME280;25564;53.312;9.790;2023-04-04T06:42:50;102374.84;;;2.25;81.58
39891;BME280;25564;53.312;9.790;2023-04-04T06:45:25;102350.94;;;2.18;81.64
39891;BME280;25564;53.312;9.790;2023-04-04T06:47:58;102373.50;;;2.35;80.85
39891;BME280;25564;53.312;9.790;2023-04-04T06:50:29;102363.84;;;2.34;81.04
39891;BME280;25564;53.312;9.790;2023-04-04T06:53:02;102335.59;;;2.27;81.74
39891;BME280;25564;53.312;9.790;2023-04-04T06:55:34;102339.06;;;2.47;81.32
39891;BME280;25564;53.312;9.790;2023-04-04T06:58:06;102322.38;;;2.45;81.17
39891;BME280;25564;53.312;9.790;2023-04-04T07:00:37;102350.81;;;2.77;80.80
39891;BME280;25564;53.312;9.790;2023-04-04T07:03:09;102314.81;;;2.73;81.37
39891;BME280;25564;53.312;9.790;2023-04-04T07:05:41;102327.03;;;2.95;80.85
39891;BME280;25564;53.312;9.790;2023-04-04T07:08:13;102357.41;;;3.35;80.51
39891;BME280;25564;53.312;9.790;2023-04-04T07:10:44;102356.31;;;3.52;81.31
39891;BME280;25564;53.312;9.790;2023-04-04T07:13:16;102365.75;;;3.71;80.28
39891;BME280;25564;53.312;9.790;2023-04-04T07:15:47;102363.66;;;3.84;80.52
39891;BME280;25564;53.312;9.790;2023-04-04T07:18:20;102359.09;;;4.04;79.17
39891;BME280;25564;53.312;9.790;2023-04-04T07:20:51;102356.88;;;4.16;79.64
39891;BME280;25564;53.312;9.790;2023-04-04T07:23:23;102364.41;;;4.31;79.39
39891;BME280;25564;53.312;9.790;2023-04-04T07:25:55;102345.97;;;4.56;79.02
39891;BME280;25564;53.312;9.790;2023-04-04T07:28:28;102367.47;;;4.97;78.67
39891;BME280;25564;53.312;9.790;2023-04-04T07:30:59;102328.28;;;5.06;78.70
39891;BME280;25564;53.312;9.790;2023-04-04T07:33:31;102295.13;;;5.11;78.61
39891;BME280;25564;53.312;9.790;2023-04-04T07:36:03;102262.56;;;5.08;77.89
39891;BME280;25564;53.312;9.790;2023-04-04T07:38:36;102342.41;;;5.68;77.40
39891;BME280;25564;53.312;9.790;2023-04-04T07:41:07;102298.03;;;5.52;77.15
39891;BME280;25564;53.312;9.790;2023-04-04T07:43:39;102265.56;;;5.51;77.13
39891;BME280;25564;53.312;9.790;2023-04-04T07:46:11;102307.28;;;5.99;76.79
39891;BME280;25564;53.312;9.790;2023-04-04T07:48:43;102354.94;;;6.41;76.10
39891;BME280;25564;53.312;9.790;2023-04-04T07:51:14;102271.00;;;6.22;75.56
39891;BME280;25564;53.312;9.790;2023-04-04T07:53:46;102299.22;;;6.64;75.41
39891;BME280;25564;53.312;9.790;2023-04-04T07:56:18;102350.47;;;7.11;74.90
39891;BME280;25564;53.312;9.790;2023-04-04T07:58:49;102336.13;;;6.98;74.58
39891;BME280;25564;53.312;9.790;2023-04-04T08:01:20;102328.28;;;7.01;74.32
39891;BME280;25564;53.312;9.790;2023-04-04T08:03:52;102341.16;;;7.27;74.18
39891;BME280;25564;53.312;9.790;2023-04-04T08:06:24;102350.28;;;7.42;73.85
39891;BME280;25564;53.312;9.790;2023-04-04T08:08:56;102332.38;;;7.28;73.31
39891;BME280;25564;53.312;9.790;2023-04-04T08:11:27;102340.38;;;7.32;72.49
39891;BME280;25564;53.312;9.790;2023-04-04T08:13:59;102342.34;;;7.42;72.11
39891;BME280;25564;53.312;9.790;2023-04-04T08:16:30;102275.50;;;7.03;71.59
39891;BME280;25564;53.312;9.790;2023-04-04T08:19:01;102335.91;;;7.30;71.62
39891;BME280;25564;53.312;9.790;2023-04-04T08:21:34;102272.59;;;6.91;70.82
39891;BME280;25564;53.312;9.790;2023-04-04T08:24:05;102339.81;;;7.47;71.34
39891;BME280;25564;53.312;9.790;2023-04-04T08:26:39;102327.00;;;7.67;70.99
39891;BME280;25564;53.312;9.790;2023-04-04T08:29:10;102340.63;;;7.86;70.12
39891;BME280;25564;53.312;9.790;2023-04-04T08:31:41;102340.69;;;7.90;69.88
39891;BME280;25564;53.312;9.790;2023-04-04T08:34:14;102332.06;;;8.00;69.75
39891;BME280;25564;53.312;9.790;2023-04-04T08:36:45;102287.19;;;8.03;69.62
39891;BME280;25564;53.312;9.790;2023-04-04T08:39:17;102323.38;;;8.55;68.75
39891;BME280;25564;53.312;9.790;2023-04-04T08:41:56;102323.38;;;8.57;67.79
39891;BME280;25564;53.312;9.790;2023-04-04T08:44:32;102339.44;;;8.67;67.84
39891;BME280;25564;53.312;9.790;2023-04-04T08:47:06;102312.13;;;8.68;68.08
39891;BME280;25564;53.312;9.790;2023-04-04T08:49:42;102314.06;;;8.80;67.33
39891;BME280;25564;53.312;9.790;2023-04-04T08:52:16;102303.63;;;8.89;67.47
39891;BME280;25564;53.312;9.790;2023-04-04T08:54:52;102323.41;;;9.14;66.70
39891;BME280;25564;53.312;9.790;2023-04-04T08:57:24;102263.91;;;8.89;66.26
39891;BME280;25564;53.312;9.790;2023-04-04T08:59:55;102331.47;;;9.23;65.83
39891;BME280;25564;53.312;9.790;2023-04-04T09:02:28;102335.31;;;9.48;65.85
39891;BME280;25564;53.312;9.790;2023-04-04T09:05:02;102314.03;;;9.43;66.01
39891;BME280;25564;53.312;9.790;2023-04-04T09:07:37;102284.03;;;9.44;65.73
39891;BME280;25564;53.312;9.790;2023-04-04T09:10:10;102338.34;;;9.80;65.27
39891;BME280;25564;53.312;9.790;2023-04-04T09:12:44;102337.34;;;9.70;65.48
39891;BME280;25564;53.312;9.790;2023-04-04T09:15:17;102323.78;;;9.44;65.41
39891;BME280;25564;53.312;9.790;2023-04-04T09:17:49;102295.19;;;9.17;65.10
39891;BME280;25564;53.312;9.790;2023-04-04T09:20:43;102326.19;;;9.25;63.18
39891;BME280;25564;53.312;9.790;2023-04-04T09:23:16;102309.94;;;9.00;64.10
39891;BME280;25564;53.312;9.790;2023-04-04T09:25:53;102233.44;;;8.57;64.35
39891;BME280;25564;53.312;9.790;2023-04-04T09:28:28;102309.16;;;9.06;64.09
39891;BME280;25564;53.312;9.790;2023-04-04T09:31:01;102264.84;;;8.94;63.39
39891;BME280;25564;53.312;9.790;2023-04-04T09:33:33;102300.56;;;9.24;62.74
39891;BME280;25564;53.312;9.790;2023-04-04T09:36:10;102316.63;;;9.39;62.18
39891;BME280;25564;53.312;9.790;2023-04-04T09:38:43;102265.69;;;8.90;62.47
39891;BME280;25564;53.312;9.790;2023-04-04T09:41:16;102273.00;;;9.08;62.74
39891;BME280;25564;53.312;9.790;2023-04-04T09:43:51;102311.56;;;9.57;62.47
39891;BME280;25564;53.312;9.790;2023-04-04T09:46:22;102303.66;;;9.62;62.22
39891;BME280;25564;53.312;9.790;2023-04-04T09:48:55;102291.38;;;9.68;61.90
39891;BME280;25564;53.312;9.790;2023-04-04T09:51:33;102227.75;;;9.68;61.30
39891;BME280;25564;53.312;9.790;2023-04-04T09:54:09;102305.38;;;10.38;61.61
39891;BME280;25564;53.312;9.790;2023-04-04T09:56:56;102310.72;;;10.46;61.63
39891;BME280;25564;53.312;9.790;2023-04-04T09:59:28;102223.66;;;10.01;61.27
39891;BME280;25564;53.312;9.790;2023-04-04T10:02:00;102285.91;;;10.41;60.96
39891;BME280;25564;53.312;9.790;2023-04-04T10:04:34;102288.72;;;10.61;60.90
39891;BME280;25564;53.312;9.790;2023-04-04T10:07:11;102219.59;;;10.38;60.18
39891;BME280;25564;53.312;9.790;2023-04-04T10:09:47;102280.75;;;10.58;59.64
39891;BME280;25564;53.312;9.790;2023-04-04T10:12:24;102234.31;;;10.07;59.79
39891;BME280;25564;53.312;9.790;2023-04-04T10:14:57;102256.66;;;10.29;59.78
39891;BME280;25564;53.312;9.790;2023-04-04T10:17:39;102277.09;;;10.43;58.71
39891;BME280;25564;53.312;9.790;2023-04-04T10:20:11;102282.34;;;10.33;59.60
39891;BME280;25564;53.312;9.790;2023-04-04T10:22:44;102232.47;;;9.97;58.81
39891;BME280;25564;53.312;9.790;2023-04-04T10:25:16;102236.03;;;9.99;59.17
39891;BME280;25564;53.312;9.790;2023-04-04T10:27:48;102270.94;;;10.49;58.59
39891;BME280;25564;53.312;9.790;2023-04-04T10:30:22;102255.13;;;10.64;58.29
39891;BME280;25564;53.312;9.790;2023-04-04T10:33:01;102231.34;;;10.84;57.16
39891;BME280;25564;53.312;9.790;2023-04-04T10:35:43;102205.84;;;11.20;57.58
39891;BME280;25564;53.312;9.790;2023-04-04T10:38:17;102253.00;;;11.78;57.17
39891;BME280;25564;53.312;9.790;2023-04-04T10:40:54;102253.00;;;11.85;56.85
39891;BME280;25564;53.312;9.790;2023-04-04T10:43:31;102241.34;;;11.47;55.47
39891;BME280;25564;53.312;9.790;2023-04-04T10:46:10;102260.75;;;11.18;55.82
39891;BME280;25564;53.312;9.790;2023-04-04T10:48:43;102272.09;;;10.88;55.50
39891;BME280;25564;53.312;9.790;2023-04-04T10:51:14;102174.34;;;10.21;56.22
39891;BME280;25564;53.312;9.790;2023-04-04T10:53:46;102254.16;;;10.52;55.77
39891;BME280;25564;53.312;9.790;2023-04-04T10:56:18;102210.69;;;10.30;56.08
39891;BME280;25564;53.312;9.790;2023-04-04T10:58:49;102245.31;;;10.53;55.65
39891;BME280;25564;53.312;9.790;2023-04-04T11:04:20;102251.81;;;11.00;56.79
39891;BME280;25564;53.312;9.790;2023-04-04T11:07:17;102233.38;;;11.40;55.56
39891;BME280;25564;53.312;9.790;2023-04-04T11:09:57;102206.78;;;11.31;56.35
39891;BME280;25564;53.312;9.790;2023-04-04T11:12:31;102248.56;;;11.84;56.63
39891;BME280;25564;53.312;9.790;2023-04-04T11:15:09;102245.91;;;11.87;55.97
39891;BME280;25564;53.312;9.790;2023-04-04T11:17:56;102231.69;;;11.72;54.64
39891;BME280;25564;53.312;9.790;2023-04-04T11:20:32;102216.56;;;11.50;55.45
39891;BME280;25564;53.312;9.790;2023-04-04T11:23:08;102242.31;;;11.75;56.42
39891;BME280;25564;53.312;9.790;2023-04-04T11:25:42;102216.59;;;11.64;56.95
39891;BME280;25564;53.312;9.790;2023-04-04T11:39:21;102207.81;;;11.97;55.26
39891;BME280;25564;53.312;9.790;2023-04-04T11:44:59;102215.78;;;12.04;54.24
39891;BME280;25564;53.312;9.790;2023-04-04T11:47:32;102137.69;;;11.40;55.25
39891;BME280;25564;53.312;9.790;2023-04-04T11:50:07;102202.41;;;11.65;54.25
39891;BME280;25564;53.312;9.790;2023-04-04T11:52:40;102183.84;;;11.77;54.38
39891;BME280;25564;53.312;9.790;2023-04-04T11:55:17;102193.63;;;11.95;53.53
39891;BME280;25564;53.312;9.790;2023-04-04T11:57:49;102192.72;;;12.23;53.69
39891;BME280;25564;53.312;9.790;2023-04-04T12:00:34;102200.69;;;12.37;54.24
39891;BME280;25564;53.312;9.790;2023-04-04T12:03:10;102107.59;;;12.03;54.23
39891;BME280;25564;53.312;9.790;2023-04-04T12:05:43;102153.66;;;12.47;53.72
39891;BME280;25564;53.312;9.790;2023-04-04T12:08:15;102138.50;;;12.58;53.18
39891;BME280;25564;53.312;9.790;2023-04-04T12:10:48;102134.91;;;12.66;52.33
39891;BME280;25564;53.312;9.790;2023-04-04T12:13:29;102176.59;;;12.84;50.82
39891;BME280;25564;53.312;9.790;2023-04-04T12:16:01;102164.25;;;12.50;51.57
39891;BME280;25564;53.312;9.790;2023-04-04T12:18:32;102151.84;;;12.49;51.34
39891;BME280;25564;53.312;9.790;2023-04-04T12:21:05;102168.63;;;12.75;51.53
39891;BME280;25564;53.312;9.790;2023-04-04T12:23:37;102165.03;;;12.84;50.82
39891;BME280;25564;53.312;9.790;2023-04-04T12:26:09;102109.28;;;12.39;50.37
39891;BME280;25564;53.312;9.790;2023-04-04T12:28:42;102150.88;;;12.72;50.74
39891;BME280;25564;53.312;9.790;2023-04-04T12:31:15;102120.59;;;12.92;50.41
39891;BME280;25564;53.312;9.790;2023-04-04T12:33:47;102085.06;;;12.96;50.42
39891;BME280;25564;53.312;9.790;2023-04-04T12:36:19;102150.72;;;13.18;49.59
39891;BME280;25564;53.312;9.790;2023-04-04T12:38:56;102118.03;;;12.72;49.23
39891;BME280;25564;53.312;9.790;2023-04-04T12:41:28;102153.56;;;12.65;49.66
39891;BME280;25564;53.312;9.790;2023-04-04T12:44:05;102057.91;;;12.04;49.60
39891;BME280;25564;53.312;9.790;2023-04-04T12:46:40;102140.38;;;12.16;49.68
39891;BME280;25564;53.312;9.790;2023-04-04T12:49:12;102068.56;;;11.61;49.92
39891;BME280;25564;53.312;9.790;2023-04-04T12:51:44;102135.97;;;12.03;49.53
39891;BME280;25564;53.312;9.790;2023-04-04T12:54:27;102099.59;;;11.56;49.38
39891;BME280;25564;53.312;9.790;2023-04-04T12:57:01;102141.25;;;11.72;49.35
39891;BME280;25564;53.312;9.790;2023-04-04T12:59:35;102050.84;;;11.19;50.23
39891;BME280;25564;53.312;9.790;2023-04-04T13:02:10;102123.56;;;11.79;50.15
39891;BME280;25564;53.312;9.790;2023-04-04T13:04:53;102059.69;;;11.52;48.48
39891;BME280;25564;53.312;9.790;2023-04-04T13:07:30;102042.00;;;11.31;49.48
39891;BME280;25564;53.312;9.790;2023-04-04T13:10:03;102118.19;;;11.59;49.39
39891;BME280;25564;53.312;9.790;2023-04-04T13:13:00;102095.16;;;11.55;48.64
39891;BME280;25564;53.312;9.790;2023-04-04T13:15:49;102112.88;;;11.70;49.35
39891;BME280;25564;53.312;9.790;2023-04-04T13:18:22;102024.25;;;11.69;50.04
39891;BME280;25564;53.312;9.790;2023-04-04T13:20:55;102102.16;;;12.46;49.65
39891;BME280;25564;53.312;9.790;2023-04-04T13:23:26;102093.16;;;12.74;49.41
39891;BME280;25564;53.312;9.790;2023-04-04T13:25:57;102032.81;;;12.70;49.11
39891;BME280;25564;53.312;9.790;2023-04-04T13:28:29;102087.56;;;13.26;49.21
39891;BME280;25564;53.312;9.790;2023-04-04T13:31:05;102082.97;;;13.51;49.00
39891;BME280;25564;53.312;9.790;2023-04-04T13:33:37;102105.88;;;13.72;49.45
39891;BME280;25564;53.312;9.790;2023-04-04T13:36:09;102091.88;;;13.46;51.14
39891;BME280;25564;53.312;9.790;2023-04-04T13:38:40;102103.34;;;13.52;50.80
39891;BME280;25564;53.312;9.790;2023-04-04T13:41:12;102085.66;;;13.48;49.66